Flight Track Log - Related Links

Times and Time Zones

All times are in EST time to prevent confusion due to time zone crossing. See the PDT4226 flight status page for this flight to view local times or setup timezone preferences in your user account.

Time Position Orientation Groundspeed Altitude Reporting Facility
EST Latitude Longitude Course Direction KTS MPH feet Rate Location/Type
Fri 11:46:04 AM 39.9000 -75.2333 North 124 143 700  Level Philadelphia TRACON
Fri 11:46:16 AM 39.9000 -75.2500 270° West 122 140 1,200 1,500 Climbing Philadelphia TRACON
Fri 11:47:16 AM 39.9167 -75.2833 303° West 126 145 2,500 1,300 Climbing Philadelphia TRACON
Fri 11:48:16 AM 39.9333 -75.3333 294° West 147 169 3,800 1,300 Climbing Philadelphia TRACON
Fri 11:49:16 AM 39.9500 -75.3833 294° West 155 178 5,100 1,306 Climbing Philadelphia TRACON
Fri 11:50:20 AM 39.9714 -75.4325 300° West 156 180 6,500 1,355 Climbing New York Center
Fri 11:51:00 AM 40.1551 -75.5000 North  Level FlightAware Approximate
Fri 11:51:20 AM 40.0272 -75.4444 351° North 193 222 7,900  Level New York Center
Fri 11:52:20 AM 40.0725 -75.4583 347° North 210 242 9,100 1,400 Climbing New York Center
Fri 11:53:20 AM 40.1192 -75.4911 332° Northwest 180 207 10,700 1,250 Climbing New York Center
Fri 11:54:20 AM 40.1575 -75.5183 332° Northwest 174 200 11,600 850 Climbing New York Center
Fri 11:55:20 AM 40.2150 -75.5439 341° North 194 223 12,400 900 Climbing New York Center
Fri 11:56:20 AM 40.2531 -75.5819 323° Northwest 187 215 13,400 800 Climbing New York Center
Fri 11:57:20 AM 40.2850 -75.6169 320° Northwest 174 200 14,000 300 Climbing New York Center
Fri 11:58:20 AM 40.3333 -75.6556 329° Northwest 192 221 14,000  Level New York Center
Fri 11:59:20 AM 40.3831 -75.7108 320° Northwest 208 239 14,000  Level New York Center
Fri 12:00:20 PM 40.4378 -75.7531 330° Northwest 220 253 14,000  Level New York Center
Fri 12:01:20 PM 40.5036 -75.7686 350° North 230 265 14,000  Level New York Center
Fri 12:02:20 PM 40.5703 -75.7708 359° North 253 291 14,000  Level New York Center
Fri 12:03:20 PM 40.6408 -75.7814 354° North 253 291 14,000  Level New York Center
Fri 12:04:20 PM 40.7172 -75.7953 352° North 253 291 14,000  Level New York Center
Fri 12:05:20 PM 40.7897 -75.8033 355° North 253 291 14,000  Level New York Center
Fri 12:06:20 PM 40.8642 -75.8169 352° North 253 291 14,000  Level New York Center
Fri 12:07:20 PM 40.9308 -75.8219 357° North 253 291 14,000  Level New York Center
Fri 12:08:20 PM 41.0139 -75.8281 357° North 259 298 14,000  Level New York Center
Fri 12:09:20 PM 41.0839 -75.8444 350° North 259 298 14,000  Level New York Center
Fri 12:10:20 PM 41.1503 -75.8494 357° North 259 298 14,000 50 Level New York Center
Fri 12:11:20 PM 41.2231 -75.8547 357° North 259 298 14,100 50 Climbing New York Center
Fri 12:12:20 PM 41.3036 -75.8692 352° North 259 298 14,100  Level New York Center
Fri 12:13:20 PM 41.3742 -75.8772 355° North 254 292 14,100  Level New York Center
Fri 12:14:20 PM 41.4486 -75.8911 352° North 254 292 14,100 -250 Level New York Center
Fri 12:15:20 PM 41.5211 -75.8967 357° North 254 292 13,600 -500 Descending New York Center
Fri 12:16:20 PM 41.5914 -75.9078 353° North 271 312 13,100 -450 Descending New York Center
Fri 12:17:20 PM 41.6661 -75.9189 354° North 276 318 12,700 -750 Descending New York Center
Fri 12:18:20 PM 41.7531 -75.9286 355° North 276 318 11,600 -1,100 Descending New York Center
Fri 12:19:20 PM 41.8275 -75.9369 355° North 271 312 10,500 -1,100 Descending New York Center
Fri 12:20:20 PM 41.9008 -75.9289 North 271 312 9,400 -1,150 Descending New York Center
Fri 12:21:20 PM 41.9653 -75.9311 359° North 266 306 8,200 -1,350 Descending New York Center
Fri 12:22:20 PM 42.0350 -75.9589 344° North 245 282 6,700 -1,300 Descending New York Center
Fri 12:23:20 PM 42.0922 -75.9800 345° North 240 276 5,600 -1,200 Descending New York Center
Fri 12:24:20 PM 42.1514 -76.0072 341° North 235 270 4,300 -1,150 Descending New York Center
Fri 12:25:20 PM 42.2042 -76.0367 338° Northwest 217 250 3,300 -700 Descending New York Center
Fri 12:26:20 PM 42.2450 -76.0539 343° North 187 215 2,900 -500 Descending New York Center
Fri 12:27:20 PM 42.2450 -76.0119 90° East 105 121 2,300 -400 Descending New York Center
Fri 12:28:20 PM 42.2539 -75.9986 48° Northeast 54 62 2,100 -200 Descending New York Center

Login

Don't have an account? Register now (free) for customized features, flight alerts, and more!